| time (UTC) | temp F | wind direction | speed MPH | gust MPH | rain 1hr in | rain 24hr in | rain mn in | humidity % | barometer mb |
| 20260510230034 | 72 | 140 | 15.0 | 24.0 | 0.00 | 0.00 | 0.00 | 29 | 1020.7 |
| 20260510224536 | 72 | 163 | 13.0 | 25.0 | 0.00 | 0.00 | 0.00 | 28 | 1020.7 |
| 20260510223032 | 72 | 127 | 16.0 | 28.0 | 0.00 | 0.00 | 0.00 | 27 | 1020.6 |
| 20260510221631 | 73 | 113 | 16.0 | 27.0 | 0.00 | 0.00 | 0.00 | 27 | 1020.5 |
| 20260510220029 | 73 | 167 | 15.0 | 27.0 | 0.00 | 0.00 | 0.00 | 25 | 1020.8 |
| 20260510214529 | 73 | 103 | 15.0 | 27.0 | 0.00 | 0.00 | 0.00 | 27 | 1020.6 |
| 20260510213029 | 73 | 129 | 11.0 | 20.0 | 0.00 | 0.00 | 0.00 | 27 | 1020.6 |
| 20260510211531 | 71 | 75 | 12.0 | 24.0 | 0.00 | 0.00 | 0.00 | 29 | 1020.3 |
| 20260510210030 | 70 | 128 | 16.0 | 23.0 | 0.00 | 0.00 | 0.00 | 34 | 1020.6 |
| 20260510204526 | 67 | 88 | 11.0 | 21.0 | 0.00 | 0.00 | 0.00 | 39 | 1020.9 |
| 20260510203024 | 66 | 88 | 9.0 | 20.0 | 0.00 | 0.00 | 0.00 | 39 | 1020.7 |
| 20260510201524 | 68 | 86 | 11.0 | 21.0 | 0.00 | 0.00 | 0.00 | 37 | 1020.6 |
| 20260510200022 | 71 | 95 | 9.0 | 14.0 | 0.00 | 0.00 | 0.00 | 27 | 1020.5 |
| 20260510194521 | 73 | 150 | 7.0 | 12.0 | 0.00 | 0.00 | 0.00 | 23 | 1020.3 |
| 20260510193020 | 77 | 183 | 7.0 | 12.0 | 0.00 | 0.00 | 0.00 | 18 | 1020.1 |
| 20260510191517 | 77 | 209 | 8.0 | 18.0 | 0.00 | 0.00 | 0.00 | 19 | 1020.1 |
| 20260510190029 | 77 | 335 | 3.0 | 12.0 | 0.00 | 0.00 | 0.00 | 18 | 1020.4 |
| 20260510184514 | 76 | 193 | 7.0 | 15.0 | 0.00 | 0.00 | 0.00 | 20 | 1020.6 |
| 20260510183012 | 75 | 101 | 3.0 | 12.0 | 0.00 | 0.00 | 0.00 | 21 | 1020.6 |
| 20260510181508 | 75 | 223 | 10.0 | 18.0 | 0.00 | 0.00 | 0.00 | 21 | 1020.7 |
| 20260510180005 | 74 | 117 | 6.0 | 13.0 | 0.00 | 0.00 | 0.00 | 24 | 1020.8 |
| 20260510174502 | 74 | 179 | 8.0 | 17.0 | 0.00 | 0.00 | 0.00 | 25 | 1020.9 |
| 20260510173057 | 73 | 146 | 7.0 | 14.0 | 0.00 | 0.00 | 0.00 | 26 | 1020.9 |
| 20260510171615 | 72 | 71 | 6.0 | 14.0 | 0.00 | 0.00 | 0.00 | 25 | 1021.0 |
| 20260510170050 | 72 | 115 | 8.0 | 15.0 | 0.00 | 0.00 | 0.00 | 27 | 1020.9 |
| 20260510164548 | 71 | 131 | 8.0 | 13.0 | 0.00 | 0.00 | 0.00 | 27 | 1021.0 |
| 20260510163042 | 70 | 164 | 9.0 | 15.0 | 0.00 | 0.00 | 0.00 | 27 | 1021.0 |
| 20260510161537 | 69 | 167 | 12.0 | 18.0 | 0.00 | 0.00 | 0.00 | 27 | 1020.9 |
| 20260510160042 | 69 | 128 | 9.0 | 17.0 | 0.00 | 0.00 | 0.00 | 27 | 1020.7 |
| 20260510154545 | 68 | 154 | 11.0 | 16.0 | 0.00 | 0.00 | 0.00 | 26 | 1020.7 |
| 20260510153041 | 67 | 140 | 9.0 | 15.0 | 0.00 | 0.00 | 0.00 | 28 | 1020.6 |
| 20260510151520 | 66 | 175 | 11.0 | 18.0 | 0.00 | 0.00 | 0.00 | 28 | 1020.4 |
| 20260510150015 | 65 | 109 | 12.0 | 18.0 | 0.00 | 0.00 | 0.00 | 30 | 1020.4 |
| 20260510144528 | 64 | 162 | 9.0 | 17.0 | 0.00 | 0.00 | 0.00 | 31 | 1020.4 |
| 20260510143007 | 62 | 142 | 10.0 | 20.0 | 0.00 | 0.00 | 0.00 | 32 | 1020.3 |
| 20260510141503 | 61 | 146 | 11.0 | 16.0 | 0.00 | 0.00 | 0.00 | 32 | 1020.1 |
| 20260510140058 | 59 | 109 | 8.0 | 13.0 | 0.00 | 0.00 | 0.00 | 35 | 1019.9 |
| 20260510134529 | 58 | 115 | 5.0 | 10.0 | 0.00 | 0.00 | 0.00 | 37 | 1019.8 |
| 20260510133029 | 57 | 104 | 5.0 | 10.0 | 0.00 | 0.00 | 0.00 | 36 | 1019.7 |
| 20260510131523 | 57 | 120 | 7.0 | 11.0 | 0.00 | 0.00 | 0.00 | 36 | 1019.6 |
| 20260510130020 | 57 | 115 | 5.0 | 10.0 | 0.00 | 0.00 | 0.00 | 35 | 1019.4 |
| 20260510124519 | 58 | 119 | 6.0 | 10.0 | 0.00 | 0.00 | 0.00 | 34 | 1019.2 |
| 20260510123013 | 58 | 100 | 4.0 | 9.0 | 0.00 | 0.00 | 0.00 | 33 | 1019.1 |
| 20260510121510 | 59 | 77 | 5.0 | 11.0 | 0.00 | 0.00 | 0.00 | 31 | 1019.1 |
| 20260510120014 | 60 | 117 | 4.0 | 10.0 | 0.00 | 0.00 | 0.00 | 29 | 1018.9 |
| 20260510114507 | 60 | 101 | 7.0 | 12.0 | 0.00 | 0.00 | 0.00 | 28 | 1018.9 |
| 20260510113004 | 60 | 126 | 5.0 | 9.0 | 0.00 | 0.00 | 0.00 | 27 | 1018.6 |
| 20260510111503 | 59 | 119 | 1.0 | 8.0 | 0.00 | 0.00 | 0.00 | 27 | 1018.4 |
| 20260510110007 | 59 | 135 | 7.0 | 15.0 | 0.00 | 0.00 | 0.00 | 27 | 1018.3 |
| 20260510104613 | 58 | 107 | 7.0 | 12.0 | 0.00 | 0.00 | 0.00 | 27 | 1018.4 |
| 20260510103059 | 58 | 125 | 4.0 | 8.0 | 0.00 | 0.00 | 0.00 | 27 | 1018.5 |
| 20260510101601 | 57 | 117 | 4.0 | 7.0 | 0.00 | 0.00 | 0.00 | 29 | 1018.3 |
| 20260510100056 | 57 | 109 | 4.0 | 7.0 | 0.00 | 0.00 | 0.00 | 30 | 1018.0 |
| 20260510094559 | 57 | 288 | 2.0 | 5.0 | 0.00 | 0.00 | 0.00 | 31 | 1017.8 |
| 20260510093051 | 57 | 288 | 0.0 | 1.0 | 0.00 | 0.00 | 0.00 | 31 | 1017.7 |
| 20260510091548 | 56 | 288 | 1.0 | 4.0 | 0.00 | 0.00 | 0.00 | 31 | 1017.6 |
| 20260510090045 | 56 | 288 | 0.0 | 0.0 | 0.00 | 0.00 | 0.00 | 32 | 1017.4 |
| 20260510084557 | 57 | 288 | 0.0 | 0.0 | 0.00 | 0.00 | 0.00 | 30 | 1017.1 |
| 20260510083051 | 58 | 288 | 0.0 | 1.0 | 0.00 | 0.00 | 0.00 | 29 | 1017.0 |
| 20260510081537 | 59 | 350 | 1.0 | 3.0 | 0.00 | 0.00 | 0.00 | 27 | 1017.0 |
| 20260510080032 | 60 | 349 | 1.0 | 3.0 | 0.00 | 0.00 | 0.00 | 26 | 1016.9 |
| 20260510074530 | 61 | 349 | 1.0 | 4.0 | 0.00 | 0.00 | 0.00 | 25 | 1016.9 |
| 20260510073044 | 61 | 35 | 1.0 | 5.0 | 0.00 | 0.00 | 0.00 | 25 | 1016.8 |
| 20260510071529 | 62 | 28 | 1.0 | 4.0 | 0.00 | 0.00 | 0.00 | 25 | 1016.7 |
| 20260510070025 | 62 | 355 | 2.0 | 8.0 | 0.00 | 0.00 | 0.00 | 24 | 1016.7 |
| 20260510064522 | 63 | 355 | 3.0 | 6.0 | 0.00 | 0.00 | 0.00 | 24 | 1016.7 |
| 20260510063022 | 63 | 350 | 2.0 | 10.0 | 0.00 | 0.00 | 0.00 | 23 | 1016.8 |
| 20260510061522 | 64 | 360 | 3.0 | 8.0 | 0.00 | 0.00 | 0.00 | 22 | 1016.6 |
| 20260510060030 | 64 | 355 | 4.0 | 10.0 | 0.00 | 0.00 | 0.00 | 21 | 1016.6 |
| 20260510054517 | 65 | 9 | 3.0 | 8.0 | 0.00 | 0.00 | 0.00 | 20 | 1016.5 |
| 20260510053014 | 66 | 5 | 6.0 | 11.0 | 0.00 | 0.00 | 0.00 | 19 | 1016.4 |
| 20260510051513 | 66 | 339 | 6.0 | 12.0 | 0.00 | 0.00 | 0.00 | 18 | 1016.4 |
| 20260510050016 | 67 | 344 | 5.0 | 12.0 | 0.00 | 0.00 | 0.00 | 18 | 1016.2 |
| 20260510044512 | 67 | 346 | 4.0 | 11.0 | 0.00 | 0.00 | 0.00 | 18 | 1016.2 |
| 20260510043013 | 66 | 10 | 6.0 | 14.0 | 0.00 | 0.00 | 0.00 | 17 | 1016.2 |
| 20260510041511 | 66 | 351 | 1.0 | 5.0 | 0.00 | 0.00 | 0.00 | 16 | 1016.2 |
| 20260510040011 | 66 | 355 | 2.0 | 9.0 | 0.00 | 0.00 | 0.00 | 15 | 1016.1 |
| 20260510034509 | 67 | 355 | 3.0 | 8.0 | 0.00 | 0.00 | 0.00 | 14 | 1015.9 |
| 20260510033009 | 67 | 346 | 4.0 | 8.0 | 0.00 | 0.00 | 0.00 | 14 | 1015.8 |
| 20260510031508 | 68 | 348 | 4.0 | 8.0 | 0.00 | 0.00 | 0.00 | 14 | 1015.6 |
| 20260510030006 | 70 | 327 | 5.0 | 10.0 | 0.00 | 0.00 | 0.00 | 13 | 1015.2 |
| 20260510024504 | 70 | 313 | 4.0 | 11.0 | 0.00 | 0.00 | 0.00 | 13 | 1015.1 |
| 20260510023003 | 71 | 341 | 4.0 | 8.0 | 0.00 | 0.00 | 0.00 | 13 | 1014.9 |
| 20260510021503 | 72 | 302 | 3.0 | 9.0 | 0.00 | 0.00 | 0.00 | 12 | 1014.7 |
| 20260510020002 | 73 | 306 | 4.0 | 12.0 | 0.00 | 0.00 | 0.00 | 12 | 1014.7 |
| 20260510014601 | 74 | 299 | 8.0 | 14.0 | 0.00 | 0.00 | 0.00 | 11 | 1014.6 |
| 20260510013159 | 76 | 300 | 12.0 | 19.0 | 0.00 | 0.00 | 0.00 | 10 | 1014.4 |
| 20260510011559 | 76 | 309 | 10.0 | 16.0 | 0.00 | 0.00 | 0.00 | 10 | 1014.2 |
| 20260510004603 | 77 | 316 | 7.0 | 19.0 | 0.00 | 0.00 | 0.00 | 10 | 1014.2 |
| 20260510003059 | 77 | 300 | 7.0 | 17.0 | 0.00 | 0.00 | 0.00 | 10 | 1014.1 |
| 20260510001557 | 78 | 304 | 9.0 | 24.0 | 0.00 | 0.00 | 0.00 | 9 | 1014.1 |
| 20260509234555 | 79 | 318 | 11.0 | 21.0 | 0.00 | 0.00 | 0.00 | 9 | 1014.0 |
| 20260509233100 | 82 | 317 | 13.0 | 22.0 | 0.00 | 0.00 | 0.00 | 8 | 1014.0 |
| 20260509231558 | 82 | 234 | 8.0 | 22.0 | 0.00 | 0.00 | 0.00 | 8 | 1013.9 |